Cheraw, Mississippi
Current Conditions -  °F | °C
As of 10:30 AM on Monday 22 Dec 2014 (Local Time) from KMCB Reporting Station
Haze Haze  
Wind Chill: 60°   Ceiling: 200
Heat Index: 60°   Visibility: 1.2mi
Dew Point: 59°   Wind: 7mph
Humidity: 96%   Direction: 140°SE
Pressure: 29.8"   Gusts: NA
Location:  31.274°N, 89.9542°W
Report Text: KMCB 221630Z AUTO 14006KT 1 1/4SM BR OVC002 16/15 A2980 RMK AO2 T01560150
Loading
Personal Weather Stations






























Interactive Weather Map New forecast layout! Learn more

10-Day Weather Forecast

Advertisements
Track Severe Weather on mobile